Saffet Bey — TCUZ — position and weather

sailwx.info

Track history (hours):
 
Tides and Currents Weather Stations Pressure Air Temp Water Temp Dewpoint Dewpoint Depression Visibility Wind Speed Wind Dir Waves Ship Positions

Saffet Bey

Last reported at 2015-May-26 11:32 UTC. Time now 2015-May-30 00:32 UTC.
Position N 39°50' E 018°59'.

Length 164 m; draft 7.2 m.

Type: Cargo ship. MMSI: 271000419.

Date/timePositionNaut miles runAvg speedWind from/ knotsBaromVisibWave heightAir tempDewpointWater temp
2015-May-26 11:32N 39°50' E 018°59'31410.8
2015-May-25 06:33N 37°15' E 024°49'1414.0
2015-May-25 05:34N 37°23' E 025°03'1414.1
2015-May-25 04:33N 37°32' E 025°16'1414.1
2015-May-25 03:33N 37°42' E 025°29'11 0.6
2015-May-24 10:21N 37°50' E 025°39'1214.7
2015-May-24 09:33N 37°41' E 025°28'1514.6
2015-May-24 08:34N 37°31' E 025°15'1514.7
2015-May-24 07:33N 37°22' E 025°01'31911.3
2015-May-23 03:14N 39°50' E 018°59'  
2015-May-19 18:29N 39°50' E 019°05'38 7.6
2015-May-19 13:29N 39°23' E 019°39'27610.6
2015-May-18 11:33N 37°18' E 024°53'1515.2
2015-May-18 10:33N 37°27' E 025°08'1515.5
2015-May-18 09:33N 37°37' E 025°23'1514.9
2015-May-18 08:34N 37°47' E 025°36'5 0.3
2015-May-17 13:27N 37°51' E 025°41'1314.7
2015-May-17 12:33N 37°42' E 025°29'1514.7
2015-May-17 11:33N 37°31' E 025°15'1514.7
2015-May-17 10:32N 37°22' E 025°01'  
Track history (hours):
 
Tides and Currents Weather Stations Pressure Air Temp Water Temp Dewpoint Dewpoint Depression Visibility Wind Speed Wind Dir Waves Ship Positions

Saffet Bey

Last reported at 2015-May-26 11:32 UTC. Time now 2015-May-30 00:32 UTC.
Position N 39°50' E 018°59'.

Length 164 m; draft 7.2 m.

Type: Cargo ship. MMSI: 271000419.

Date/timePositionNaut miles runAvg speedWind from/ knotsBaromVisibWave heightAir tempDewpointWater temp
2015-May-26 11:32N 39°50' E 018°59'31410.8
2015-May-25 06:33N 37°15' E 024°49'1414.0
2015-May-25 05:34N 37°23' E 025°03'1414.1
2015-May-25 04:33N 37°32' E 025°16'1414.1
2015-May-25 03:33N 37°42' E 025°29'11 0.6
2015-May-24 10:21N 37°50' E 025°39'1214.7
2015-May-24 09:33N 37°41' E 025°28'1514.6
2015-May-24 08:34N 37°31' E 025°15'1514.7
2015-May-24 07:33N 37°22' E 025°01'31911.3
2015-May-23 03:14N 39°50' E 018°59'  
2015-May-19 18:29N 39°50' E 019°05'38 7.6
2015-May-19 13:29N 39°23' E 019°39'27610.6
2015-May-18 11:33N 37°18' E 024°53'1515.2
2015-May-18 10:33N 37°27' E 025°08'1515.5
2015-May-18 09:33N 37°37' E 025°23'1514.9
2015-May-18 08:34N 37°47' E 025°36'5 0.3
2015-May-17 13:27N 37°51' E 025°41'1314.7
2015-May-17 12:33N 37°42' E 025°29'1514.7
2015-May-17 11:33N 37°31' E 025°15'1514.7
2015-May-17 10:32N 37°22' E 025°01'  

Dump ship's entire track history